createdAt,value
2017-05-22T00:01:13.903Z,16.22
2017-05-22T00:03:41.427Z,16.33
2017-05-22T00:06:08.951Z,16.24
2017-05-22T00:08:36.516Z,16.06
2017-05-22T00:11:04.136Z,16.10
2017-05-22T00:13:31.711Z,15.96
2017-05-22T00:15:59.250Z,15.95
2017-05-22T00:18:26.779Z,15.89
2017-05-22T00:20:54.328Z,16.02
2017-05-22T00:23:21.871Z,15.82
2017-05-22T00:25:49.816Z,15.79
2017-05-22T00:28:17.338Z,15.94
2017-05-22T00:30:44.864Z,15.69
2017-05-22T00:33:12.427Z,15.45
2017-05-22T00:35:39.951Z,15.36
2017-05-22T00:38:07.503Z,15.21
2017-05-22T00:40:35.122Z,15.09
2017-05-22T00:43:02.720Z,15.07
2017-05-22T00:45:30.287Z,15.05
2017-05-22T00:47:58.183Z,15.27
2017-05-22T00:50:25.739Z,15.28
2017-05-22T00:52:53.249Z,15.60
2017-05-22T00:55:20.832Z,15.61
2017-05-22T00:57:48.360Z,15.63
2017-05-22T01:00:15.967Z,15.54
2017-05-22T01:02:43.476Z,15.55
2017-05-22T01:05:10.999Z,15.46
2017-05-22T01:07:38.572Z,15.20
2017-05-22T01:10:06.197Z,14.96
2017-05-22T01:12:33.732Z,14.98
2017-05-22T01:15:01.306Z,14.68
2017-05-22T01:17:28.846Z,14.88
2017-05-22T01:19:56.459Z,14.75
2017-05-22T01:22:24.009Z,15.09
2017-05-22T01:24:51.931Z,15.11
2017-05-22T01:27:19.439Z,15.08
2017-05-22T01:29:46.960Z,15.25
2017-05-22T01:32:14.560Z,15.13
2017-05-22T01:34:42.128Z,15.09
2017-05-22T01:37:09.648Z,15.13
2017-05-22T01:39:37.200Z,14.82
2017-05-22T01:42:04.719Z,14.67
2017-05-22T01:44:32.271Z,14.54
2017-05-22T01:46:59.929Z,14.41
2017-05-22T01:49:27.540Z,14.37
2017-05-22T01:51:55.091Z,14.31
2017-05-22T01:54:22.942Z,14.51
2017-05-22T01:56:50.475Z,14.62
2017-05-22T01:59:17.995Z,14.32
2017-05-22T02:01:45.611Z,14.14
2017-05-22T02:04:13.152Z,14.44
2017-05-22T02:06:41.032Z,14.38
2017-05-22T02:09:08.539Z,14.58
2017-05-22T02:11:36.062Z,14.64
2017-05-22T02:14:03.616Z,14.71
2017-05-22T02:16:31.139Z,14.61
2017-05-22T02:18:58.692Z,14.27
2017-05-22T02:21:26.238Z,13.99
2017-05-22T02:23:53.801Z,13.89
2017-05-22T02:26:21.335Z,13.69
2017-05-22T02:28:48.922Z,13.98
2017-05-22T02:31:16.564Z,13.75
2017-05-22T02:33:44.080Z,13.63
2017-05-22T02:36:11.759Z,13.64
2017-05-22T02:38:39.271Z,13.76
2017-05-22T02:41:07.212Z,13.65
2017-05-22T02:43:34.731Z,13.73
2017-05-22T02:46:02.260Z,13.64
2017-05-22T02:48:29.807Z,13.44
2017-05-22T02:50:58.168Z,13.37
2017-05-22T02:53:25.911Z,13.50
2017-05-22T02:55:53.448Z,13.47
2017-05-22T02:58:21.308Z,13.58
2017-05-22T03:00:48.833Z,13.54
2017-05-22T03:03:16.359Z,13.49
2017-05-22T03:05:43.919Z,13.46
2017-05-22T03:08:11.475Z,13.44
2017-05-22T03:10:39.378Z,13.46
2017-05-22T03:13:06.902Z,13.39
2017-05-22T03:15:34.420Z,13.60
2017-05-22T03:18:01.975Z,13.90
2017-05-22T03:20:29.500Z,13.95
2017-05-22T03:22:57.067Z,14.08
2017-05-22T03:25:24.591Z,13.96
2017-05-22T03:27:52.106Z,14.02
2017-05-22T03:30:19.671Z,13.97
2017-05-22T03:32:47.207Z,13.79
2017-05-22T03:35:14.834Z,13.60
2017-05-22T03:37:42.405Z,13.49
2017-05-22T03:40:09.999Z,13.45
2017-05-22T03:42:37.542Z,13.39
2017-05-22T03:45:05.076Z,13.30
2017-05-22T03:47:32.895Z,13.31
2017-05-22T03:50:00.450Z,13.39
2017-05-22T03:52:27.989Z,13.30
2017-05-22T03:54:55.545Z,13.66
2017-05-22T03:57:23.127Z,13.81
2017-05-22T03:59:50.699Z,14.05
2017-05-22T04:02:18.253Z,14.04
2017-05-22T04:04:45.799Z,14.09
2017-05-22T04:07:13.487Z,14.11
2017-05-22T04:09:41.028Z,14.16
2017-05-22T04:12:08.951Z,14.19
2017-05-22T04:14:36.493Z,14.19
2017-05-22T04:17:04.009Z,14.05
2017-05-22T04:19:31.821Z,13.97
2017-05-22T04:21:59.398Z,13.75
2017-05-22T04:24:26.911Z,13.57
2017-05-22T04:26:54.791Z,13.52
2017-05-22T04:29:22.323Z,13.45
2017-05-22T04:31:49.850Z,13.37
2017-05-22T04:34:17.446Z,13.33
2017-05-22T04:36:44.967Z,13.43
2017-05-22T04:39:12.525Z,13.51
2017-05-22T04:41:40.047Z,13.57
2017-05-22T04:44:07.615Z,13.70
2017-05-22T04:46:35.145Z,13.78
2017-05-22T04:49:02.668Z,13.96
2017-05-22T04:51:30.289Z,13.95
2017-05-22T04:53:57.813Z,13.94
2017-05-22T04:56:25.686Z,14.06
2017-05-22T04:58:53.220Z,14.18
2017-05-22T05:01:20.821Z,14.44
2017-05-22T05:03:48.382Z,14.46
2017-05-22T05:06:16.300Z,14.52
2017-05-22T05:08:43.832Z,14.60
2017-05-22T05:11:11.353Z,14.69
2017-05-22T05:13:39.206Z,14.82
2017-05-22T05:16:06.744Z,14.91
2017-05-22T05:18:34.357Z,14.96
2017-05-22T05:21:01.931Z,15.01
2017-05-22T05:23:29.952Z,15.10
2017-05-22T05:25:57.525Z,15.16
2017-05-22T05:28:25.157Z,15.24
2017-05-22T05:30:52.735Z,15.28
2017-05-22T05:33:20.267Z,15.28
2017-05-22T05:35:47.832Z,15.28
2017-05-22T05:38:15.356Z,15.34
2017-05-22T05:40:43.050Z,15.37
2017-05-22T05:43:10.607Z,15.45
2017-05-22T05:45:38.235Z,15.52
2017-05-22T05:48:08.443Z,15.58
2017-05-22T05:50:36.400Z,15.65
2017-05-22T05:53:03.924Z,15.70
2017-05-22T05:55:31.502Z,15.76
2017-05-22T05:57:59.034Z,15.88
2017-05-22T06:00:26.648Z,15.89
2017-05-22T06:02:54.352Z,15.93
2017-05-22T06:05:22.163Z,15.92
2017-05-22T06:07:49.690Z,16.00
2017-05-22T06:10:17.222Z,16.01
2017-05-22T06:12:44.803Z,16.04
2017-05-22T06:15:12.327Z,16.04
2017-05-22T06:17:39.867Z,16.17
2017-05-22T06:20:07.790Z,16.19
2017-05-22T06:22:35.353Z,16.22
2017-05-22T06:25:02.875Z,16.24
2017-05-22T06:27:30.451Z,16.27
2017-05-22T06:29:58.004Z,16.34
2017-05-22T06:32:25.584Z,16.41
2017-05-22T06:34:53.145Z,16.51
2017-05-22T06:37:20.710Z,16.57
2017-05-22T06:39:48.562Z,16.64
2017-05-22T06:42:16.103Z,16.75
2017-05-22T06:44:43.633Z,16.82
2017-05-22T06:47:11.199Z,16.89
2017-05-22T06:49:38.765Z,17.01
2017-05-22T06:52:06.359Z,17.17
2017-05-22T06:54:33.975Z,17.22
2017-05-22T06:57:01.826Z,17.27
2017-05-22T06:59:29.373Z,17.32
2017-05-22T07:01:56.902Z,17.31
2017-05-22T07:04:24.471Z,17.32
2017-05-22T07:06:52.044Z,17.36
2017-05-22T07:09:19.914Z,17.46
2017-05-22T07:11:47.444Z,17.55
2017-05-22T07:14:14.966Z,17.62
2017-05-22T07:16:42.567Z,17.75
2017-05-22T07:19:10.182Z,17.77
2017-05-22T07:21:37.707Z,17.82
2017-05-22T07:24:05.267Z,17.89
2017-05-22T07:26:32.782Z,17.97
2017-05-22T07:29:00.625Z,18.00
2017-05-22T07:31:28.193Z,18.02
2017-05-22T07:33:55.841Z,18.06
2017-05-22T07:36:23.479Z,18.08
2017-05-22T07:38:51.029Z,18.17
2017-05-22T07:41:18.672Z,18.22
2017-05-22T07:43:46.221Z,18.22
2017-05-22T07:46:14.084Z,18.33
2017-05-22T07:48:41.617Z,18.35
2017-05-22T07:51:09.161Z,18.38
2017-05-22T07:53:36.749Z,18.47
2017-05-22T07:56:04.275Z,18.56
2017-05-22T07:58:31.801Z,18.65
2017-05-22T08:00:59.373Z,18.67
2017-05-22T08:03:26.899Z,18.76
2017-05-22T08:05:54.772Z,18.78
2017-05-22T08:08:22.273Z,18.83
2017-05-22T08:10:49.795Z,18.89
2017-05-22T08:13:17.357Z,18.93
2017-05-22T08:15:44.917Z,19.06
2017-05-22T08:18:12.789Z,19.05
2017-05-22T08:20:40.320Z,19.14
2017-05-22T08:23:07.839Z,19.20
2017-05-22T08:25:35.671Z,19.26
2017-05-22T08:28:03.213Z,19.38
2017-05-22T08:30:30.804Z,19.34
2017-05-22T08:32:58.359Z,19.35
2017-05-22T08:35:25.892Z,19.42
2017-05-22T08:37:53.838Z,19.60
2017-05-22T08:40:21.394Z,19.58
2017-05-22T08:42:48.943Z,19.60
2017-05-22T08:45:16.488Z,19.71
2017-05-22T08:47:44.028Z,19.72
2017-05-22T08:50:11.611Z,19.76
2017-05-22T08:52:39.157Z,19.83
2017-05-22T08:55:07.171Z,19.90
2017-05-22T08:57:35.032Z,19.99
2017-05-22T09:00:02.580Z,20.00
2017-05-22T09:02:30.179Z,20.05
2017-05-22T09:04:57.751Z,20.16
2017-05-22T09:07:25.349Z,20.28
2017-05-22T09:09:52.912Z,20.43
2017-05-22T09:12:20.487Z,20.44
2017-05-22T09:14:48.091Z,20.42
2017-05-22T09:17:15.944Z,20.44
2017-05-22T09:19:43.519Z,20.58
2017-05-22T09:22:11.064Z,20.66
2017-05-22T09:24:38.993Z,20.73
2017-05-22T09:27:06.515Z,20.75
2017-05-22T09:29:34.048Z,20.80
2017-05-22T09:32:01.948Z,20.83
2017-05-22T09:34:29.485Z,21.01
2017-05-22T09:36:57.022Z,21.01
2017-05-22T09:39:24.623Z,21.04
2017-05-22T09:41:52.200Z,21.15
2017-05-22T09:44:20.029Z,21.26
2017-05-22T09:46:47.556Z,21.33
2017-05-22T09:49:15.105Z,21.38
2017-05-22T09:51:42.653Z,21.44
2017-05-22T09:54:10.177Z,21.54
2017-05-22T09:56:37.747Z,21.63
2017-05-22T09:59:05.295Z,21.78
2017-05-22T10:01:33.143Z,22.00
2017-05-22T10:04:00.705Z,22.14
2017-05-22T10:06:28.244Z,22.20
2017-05-22T10:08:55.825Z,22.28
2017-05-22T10:11:23.399Z,22.41
2017-05-22T10:13:50.919Z,22.49
2017-05-22T10:16:18.479Z,22.56
2017-05-22T10:18:46.016Z,22.53
2017-05-22T10:21:13.570Z,22.59
2017-05-22T10:23:41.167Z,22.88
2017-05-22T10:26:09.084Z,22.87
2017-05-22T10:28:36.628Z,22.63
2017-05-22T10:31:04.165Z,22.49
2017-05-22T10:33:31.754Z,22.67
2017-05-22T10:35:59.287Z,23.07
2017-05-22T10:38:27.185Z,23.42
2017-05-22T10:40:54.703Z,23.56
2017-05-22T10:43:22.320Z,23.68
2017-05-22T10:45:49.911Z,23.79
2017-05-22T10:48:17.453Z,24.04
2017-05-22T10:50:45.372Z,23.89
2017-05-22T10:53:12.914Z,23.87
2017-05-22T10:55:40.445Z,24.05
2017-05-22T10:58:08.017Z,24.26
2017-05-22T11:00:35.572Z,24.39
2017-05-22T11:03:03.247Z,24.16
2017-05-22T11:05:30.792Z,24.20
2017-05-22T11:07:58.381Z,24.38
2017-05-22T11:10:25.963Z,24.49
2017-05-22T11:12:53.615Z,24.79
2017-05-22T11:15:21.197Z,24.91
2017-05-22T11:17:48.735Z,24.98
2017-05-22T11:20:16.389Z,25.03
2017-05-22T11:22:43.975Z,25.22
2017-05-22T11:25:11.527Z,25.05
2017-05-22T11:27:39.056Z,24.95
2017-05-22T11:30:06.639Z,24.88
2017-05-22T11:32:34.194Z,25.29
2017-05-22T11:35:01.735Z,25.72
2017-05-22T11:37:29.290Z,26.02
2017-05-22T11:39:57.163Z,25.78
2017-05-22T11:42:24.692Z,25.25
2017-05-22T11:44:52.236Z,25.27
2017-05-22T11:47:20.075Z,25.40
2017-05-22T11:49:47.607Z,25.69
2017-05-22T11:52:15.137Z,25.85
2017-05-22T11:54:42.698Z,25.95
2017-05-22T11:57:10.221Z,26.20
2017-05-22T11:59:37.778Z,26.30
2017-05-22T12:02:05.332Z,26.02
2017-05-22T12:04:33.227Z,26.34
2017-05-22T12:07:00.755Z,26.60
2017-05-22T12:09:28.290Z,26.77
2017-05-22T12:11:55.853Z,26.80
2017-05-22T12:14:23.426Z,26.57
2017-05-22T12:16:50.960Z,26.09
2017-05-22T12:19:18.501Z,26.38
2017-05-22T12:21:46.055Z,26.52
2017-05-22T12:24:13.599Z,26.49
2017-05-22T12:26:41.169Z,26.73
2017-05-22T12:29:08.698Z,26.64
2017-05-22T12:31:36.219Z,26.54
2017-05-22T12:34:03.771Z,26.36
2017-05-22T12:36:31.398Z,26.64
2017-05-22T12:38:58.996Z,27.13
2017-05-22T12:41:26.594Z,27.01
2017-05-22T12:43:54.172Z,27.08
2017-05-22T12:46:21.795Z,26.76
2017-05-22T12:48:49.365Z,27.02
2017-05-22T12:51:16.960Z,26.89
2017-05-22T12:53:44.587Z,26.89
2017-05-22T12:56:12.129Z,26.12
2017-05-22T12:58:39.675Z,26.43
2017-05-22T13:01:07.311Z,26.89
2017-05-22T13:03:34.871Z,27.11
2017-05-22T13:06:02.388Z,27.42
2017-05-22T13:08:30.241Z,27.69
2017-05-22T13:10:58.286Z,28.00
2017-05-22T13:13:25.885Z,28.12
2017-05-22T13:15:53.739Z,28.45
2017-05-22T13:18:21.283Z,28.29
2017-05-22T13:20:48.840Z,27.96
2017-05-22T13:23:16.379Z,27.94
2017-05-22T13:25:44.093Z,27.85
2017-05-22T13:28:11.666Z,28.07
2017-05-22T13:30:39.213Z,28.14
2017-05-22T13:33:06.775Z,28.22
2017-05-22T13:35:34.304Z,28.36
2017-05-22T13:38:01.913Z,28.68
2017-05-22T13:40:29.438Z,28.22
2017-05-22T13:42:56.984Z,28.26
2017-05-22T13:45:24.554Z,27.98
2017-05-22T13:47:52.176Z,27.82
2017-05-22T13:50:19.728Z,27.86
2017-05-22T13:52:47.259Z,28.02
2017-05-22T13:55:15.172Z,28.26
2017-05-22T13:57:42.762Z,28.62
2017-05-22T14:00:10.279Z,28.70
2017-05-22T14:02:37.864Z,28.99
2017-05-22T14:05:05.460Z,28.92
2017-05-22T14:07:32.983Z,29.27
2017-05-22T14:10:00.523Z,29.55
2017-05-22T14:12:28.063Z,29.50
2017-05-22T14:14:56.057Z,29.28
2017-05-22T14:17:23.576Z,29.41
2017-05-22T14:19:51.179Z,29.65
2017-05-22T14:22:18.783Z,29.14
2017-05-22T14:24:46.384Z,29.25
2017-05-22T14:27:13.977Z,29.61
2017-05-22T14:29:41.565Z,30.08
2017-05-22T14:32:09.083Z,30.51
2017-05-22T14:34:36.903Z,30.41
2017-05-22T14:37:04.492Z,29.96
2017-05-22T14:39:32.019Z,29.87
2017-05-22T14:41:59.575Z,29.50
2017-05-22T14:44:27.092Z,29.12
2017-05-22T14:46:54.671Z,29.42
2017-05-22T14:49:22.207Z,29.35
2017-05-22T14:51:49.783Z,29.66
2017-05-22T14:54:17.465Z,29.46
2017-05-22T14:56:45.064Z,29.64
2017-05-22T14:59:12.600Z,29.55
2017-05-22T15:01:40.243Z,29.52
2017-05-22T15:04:07.808Z,29.42
2017-05-22T15:06:35.688Z,29.48
2017-05-22T15:09:03.217Z,29.67
2017-05-22T15:11:30.735Z,29.66
2017-05-22T15:13:58.334Z,29.80
2017-05-22T15:16:25.895Z,29.56
2017-05-22T15:18:53.543Z,29.69
2017-05-22T15:21:21.180Z,29.94
2017-05-22T15:23:48.709Z,29.66
2017-05-22T15:26:16.264Z,29.85
2017-05-22T15:28:43.806Z,30.39
2017-05-22T15:31:11.379Z,30.31
2017-05-22T15:33:38.900Z,30.49
2017-05-22T15:36:06.452Z,30.53
2017-05-22T15:38:34.088Z,30.54
2017-05-22T15:41:01.666Z,30.64
2017-05-22T15:43:29.520Z,30.61
2017-05-22T15:45:57.049Z,30.78
2017-05-22T15:48:24.584Z,30.02
2017-05-22T15:50:52.172Z,30.19
2017-05-22T15:53:19.887Z,30.86
2017-05-22T15:55:47.419Z,30.47
2017-05-22T15:58:14.997Z,30.20
2017-05-22T16:00:42.532Z,30.27
2017-05-22T16:03:10.104Z,30.42
2017-05-22T16:05:37.635Z,30.33
2017-05-22T16:08:05.212Z,30.02
2017-05-22T16:10:32.839Z,29.98
2017-05-22T16:13:00.376Z,30.14
2017-05-22T16:15:28.312Z,30.06
2017-05-22T16:17:55.863Z,30.15
2017-05-22T16:20:23.385Z,30.14
2017-05-22T16:22:50.953Z,30.27
2017-05-22T16:25:18.484Z,30.17
2017-05-22T16:27:46.351Z,30.11
2017-05-22T16:30:13.884Z,30.16
2017-05-22T16:32:41.470Z,30.06
2017-05-22T16:35:09.308Z,29.77
2017-05-22T16:37:36.880Z,29.58
2017-05-22T16:40:04.408Z,29.58
2017-05-22T16:42:32.031Z,29.36
2017-05-22T16:44:59.555Z,29.14
2017-05-22T16:47:27.110Z,28.88
2017-05-22T16:49:54.661Z,28.98
2017-05-22T16:52:22.484Z,29.15
2017-05-22T16:54:50.028Z,29.11
2017-05-22T16:57:17.563Z,28.90
2017-05-22T16:59:45.116Z,28.79
2017-05-22T17:02:12.654Z,28.76
2017-05-22T17:04:40.238Z,28.86
2017-05-22T17:07:07.844Z,28.89
2017-05-22T17:09:35.376Z,28.78
2017-05-22T17:12:02.985Z,28.62
2017-05-22T17:14:30.517Z,28.59
2017-05-22T17:16:58.089Z,28.51
2017-05-22T17:19:25.648Z,28.43
2017-05-22T17:21:53.599Z,28.59
2017-05-22T17:24:21.194Z,28.79
2017-05-22T17:26:48.737Z,28.83
2017-05-22T17:29:16.570Z,28.95
2017-05-22T17:31:44.100Z,28.86
2017-05-22T17:34:11.632Z,28.74
2017-05-22T17:36:39.520Z,28.70
2017-05-22T17:39:07.046Z,28.63
2017-05-22T17:41:34.575Z,28.29
2017-05-22T17:44:02.136Z,28.17
2017-05-22T17:46:29.708Z,27.98
2017-05-22T17:48:57.622Z,27.83
2017-05-22T17:51:25.194Z,27.56
2017-05-22T17:53:52.739Z,27.40
2017-05-22T17:56:20.335Z,27.32
2017-05-22T17:58:47.860Z,27.20
2017-05-22T18:01:15.501Z,27.09
2017-05-22T18:03:43.071Z,27.03
2017-05-22T18:06:10.599Z,27.04
2017-05-22T18:08:38.149Z,26.98
2017-05-22T18:11:05.667Z,26.93
2017-05-22T18:13:33.515Z,26.94
2017-05-22T18:16:01.084Z,26.82
2017-05-22T18:18:28.616Z,26.70
2017-05-22T18:20:56.187Z,26.66
2017-05-22T18:23:23.734Z,26.55
2017-05-22T18:25:51.285Z,26.49
2017-05-22T18:28:18.922Z,26.46
2017-05-22T18:30:46.463Z,26.31
2017-05-22T18:33:14.067Z,26.35
2017-05-22T18:35:41.801Z,26.18
2017-05-22T18:38:09.369Z,26.18
2017-05-22T18:40:36.964Z,26.10
2017-05-22T18:43:04.509Z,25.97
2017-05-22T18:45:32.098Z,25.90
2017-05-22T18:47:59.689Z,25.84
2017-05-22T18:50:27.231Z,25.74
2017-05-22T18:52:54.891Z,25.71
2017-05-22T18:55:22.492Z,25.55
2017-05-22T18:57:50.115Z,25.45
2017-05-22T19:00:17.685Z,25.48
2017-05-22T19:02:45.213Z,25.38
2017-05-22T19:05:12.750Z,25.33
2017-05-22T19:07:40.317Z,25.29
2017-05-22T19:10:07.857Z,25.27
2017-05-22T19:12:35.745Z,25.23
2017-05-22T19:15:03.272Z,25.28
2017-05-22T19:17:30.813Z,25.10
2017-05-22T19:19:58.429Z,25.10
2017-05-22T19:22:25.976Z,24.96
2017-05-22T19:24:53.595Z,25.00
2017-05-22T19:27:21.129Z,24.76
2017-05-22T19:29:48.688Z,24.67
2017-05-22T19:32:16.268Z,24.54
2017-05-22T19:34:43.803Z,24.47
2017-05-22T19:37:11.433Z,24.44
2017-05-22T19:39:39.110Z,24.46
2017-05-22T19:42:07.155Z,24.39
2017-05-22T19:44:34.754Z,24.44
2017-05-22T19:47:02.377Z,24.52
2017-05-22T19:49:30.017Z,24.52
2017-05-22T19:51:57.615Z,24.54
2017-05-22T19:54:25.206Z,24.39
2017-05-22T19:56:52.763Z,24.34
2017-05-22T19:59:20.336Z,24.43
2017-05-22T20:01:47.928Z,24.32
2017-05-22T20:04:15.643Z,24.34
2017-05-22T20:06:43.465Z,24.31
2017-05-22T20:09:11.044Z,24.23
2017-05-22T20:11:38.582Z,24.12
2017-05-22T20:14:06.138Z,24.14
2017-05-22T20:16:33.799Z,24.00
2017-05-22T20:19:01.364Z,24.00
2017-05-22T20:21:28.934Z,24.07
2017-05-22T20:23:56.484Z,23.99
2017-05-22T20:26:24.460Z,24.00
2017-05-22T20:28:52.004Z,23.93
2017-05-22T20:31:19.539Z,23.94
2017-05-22T20:33:47.103Z,23.88
2017-05-22T20:36:14.640Z,23.79
2017-05-22T20:38:42.543Z,23.76
2017-05-22T20:41:10.162Z,23.75
2017-05-22T20:43:37.699Z,23.83
2017-05-22T20:46:05.278Z,23.83
2017-05-22T20:48:32.813Z,23.82
2017-05-22T20:51:00.359Z,23.76
2017-05-22T20:53:28.267Z,23.64
2017-05-22T20:55:55.804Z,23.55
2017-05-22T20:58:23.345Z,23.51
2017-05-22T21:00:50.930Z,23.40
2017-05-22T21:03:18.475Z,23.31
2017-05-22T21:05:46.570Z,23.21
2017-05-22T21:08:14.117Z,23.28
2017-05-22T21:10:41.737Z,23.30
2017-05-22T21:13:09.311Z,23.27
2017-05-22T21:15:36.839Z,23.34
2017-05-22T21:18:04.423Z,23.30
2017-05-22T21:20:31.955Z,23.26
2017-05-22T21:22:59.456Z,23.11
2017-05-22T21:25:27.024Z,23.09
2017-05-22T21:27:54.551Z,23.06
2017-05-22T21:30:22.121Z,22.99
2017-05-22T21:32:49.640Z,22.88
2017-05-22T21:35:17.509Z,22.89
2017-05-22T21:37:45.087Z,22.83
2017-05-22T21:40:12.924Z,22.62
2017-05-22T21:42:40.476Z,22.62
2017-05-22T21:45:08.008Z,22.62
2017-05-22T21:47:35.571Z,22.56
2017-05-22T21:50:03.096Z,22.58
2017-05-22T21:52:30.946Z,22.59
2017-05-22T21:54:58.477Z,22.55
2017-05-22T21:57:26.006Z,22.51
2017-05-22T21:59:53.850Z,22.43
2017-05-22T22:02:21.375Z,22.42
2017-05-22T22:04:48.892Z,22.35
2017-05-22T22:07:16.460Z,22.35
2017-05-22T22:09:44.013Z,22.33
2017-05-22T22:12:11.604Z,22.39
2017-05-22T22:14:39.153Z,22.40
2017-05-22T22:17:06.753Z,22.36
2017-05-22T22:19:34.290Z,22.30
2017-05-22T22:22:01.840Z,22.27
2017-05-22T22:24:29.405Z,22.10
2017-05-22T22:26:56.969Z,21.97
2017-05-22T22:29:24.560Z,22.11
2017-05-22T22:31:52.209Z,21.93
2017-05-22T22:34:19.918Z,21.87
2017-05-22T22:36:47.451Z,21.93
2017-05-22T22:39:15.008Z,21.88
2017-05-22T22:41:42.717Z,21.91
2017-05-22T22:44:10.268Z,21.92
2017-05-22T22:46:37.888Z,21.95
2017-05-22T22:49:05.420Z,21.92
2017-05-22T22:51:32.980Z,21.71
2017-05-22T22:54:00.546Z,21.71
2017-05-22T22:56:28.080Z,21.75
2017-05-22T22:58:55.724Z,21.82
2017-05-22T23:01:23.300Z,21.76
2017-05-22T23:03:50.913Z,21.70
2017-05-22T23:06:18.448Z,21.73
2017-05-22T23:08:45.975Z,21.68
2017-05-22T23:11:13.544Z,21.57
2017-05-22T23:13:41.158Z,21.50
2017-05-22T23:16:08.758Z,21.44
2017-05-22T23:18:36.314Z,21.47
2017-05-22T23:21:03.851Z,21.50
2017-05-22T23:23:31.467Z,21.50
2017-05-22T23:25:58.996Z,21.50
2017-05-22T23:28:26.529Z,21.50
2017-05-22T23:30:54.235Z,21.39
2017-05-22T23:33:21.811Z,21.38
2017-05-22T23:35:49.923Z,21.29
2017-05-22T23:38:17.465Z,21.29
2017-05-22T23:40:45.040Z,21.26
2017-05-22T23:43:12.618Z,21.31
2017-05-22T23:45:40.156Z,21.30
2017-05-22T23:48:07.716Z,21.19
2017-05-22T23:50:35.277Z,21.19
2017-05-22T23:53:03.206Z,21.21
2017-05-22T23:55:30.768Z,21.13
2017-05-22T23:57:58.317Z,21.15
